AUA1PA LSGG-EGLL
Flight info
| Callsign | AUA1PA |
|---|---|
| Flight time | 1h 13m |
| Altitude | 34000 |
| Route | SIROD Z124 IBABA DCT TUTAX DCT OBURO DCT OKRIX DCT CLM DCT KOPOR DCT ABNUR DCT DIMAL DCT ALESO |
| Aircraft | A320/M-SDE3FGHIRWY/LB1 |
Departure
| Time | 2026-05-04 20:53 |
|---|---|
| Airport | Geneva International Airport (LSGG) |
Arrival
| Time | 2026-05-04 22:07 |
|---|---|
| Airport | London Heathrow Airport (EGLL) |
| Time | Latitude | Longitude | Altitude | Speed | Heading |
|---|---|---|---|---|---|
| 2026-05-04 20:34 | 46.23032 | 6.10570 | 1404 ft | 0 kts | 135° |
| 2026-05-04 20:45 | 46.23046 | 6.10549 | 1406 ft | 4 kts | 133° |
| 2026-05-04 20:45 | 46.23058 | 6.10531 | 1400 ft | 4 kts | 146° |
| 2026-05-04 20:45 | 46.23075 | 6.10524 | 1402 ft | 0 kts | 225° |
| 2026-05-04 20:48 | 46.23068 | 6.10514 | 1400 ft | 5 kts | 225° |
| 2026-05-04 20:48 | 46.23023 | 6.10449 | 1395 ft | 13 kts | 225° |
| 2026-05-04 20:49 | 46.22956 | 6.10337 | 1396 ft | 15 kts | 254° |
| 2026-05-04 20:49 | 46.23007 | 6.10218 | 1395 ft | 14 kts | 294° |
| 2026-05-04 20:49 | 46.22962 | 6.10105 | 1393 ft | 13 kts | 225° |
| 2026-05-04 20:49 | 46.22906 | 6.10019 | 1393 ft | 11 kts | 238° |
| 2026-05-04 20:50 | 46.22895 | 6.09926 | 1394 ft | 7 kts | 264° |
| 2026-05-04 20:50 | 46.22882 | 6.09875 | 1398 ft | 4 kts | 236° |
| 2026-05-04 20:50 | 46.22853 | 6.09830 | 1400 ft | 10 kts | 227° |
| 2026-05-04 20:50 | 46.22784 | 6.09729 | 1395 ft | 18 kts | 224° |
| 2026-05-04 20:51 | 46.22675 | 6.09569 | 1399 ft | 26 kts | 225° |
| 2026-05-04 20:51 | 46.22569 | 6.09397 | 1400 ft | 20 kts | 241° |
| 2026-05-04 20:51 | 46.22551 | 6.09246 | 1412 ft | 4 kts | 268° |
| 2026-05-04 20:51 | 46.22550 | 6.09242 | 1412 ft | 1 kts | 268° |
| 2026-05-04 20:52 | 46.22552 | 6.09215 | 1411 ft | 9 kts | 278° |
| 2026-05-04 20:52 | 46.22644 | 6.09159 | 1417 ft | 20 kts | 34° |
| 2026-05-04 20:52 | 46.22741 | 6.09330 | 1417 ft | 35 kts | 46° |
| 2026-05-04 20:52 | 46.23086 | 6.09839 | 1410 ft | 104 kts | 45° |
| 2026-05-04 20:53 | 46.23737 | 6.10792 | 1384 ft | 159 kts | 45° |
| 2026-05-04 20:53 | 46.24556 | 6.12000 | 1791 ft | 170 kts | 45° |
| 2026-05-04 20:53 | 46.25396 | 6.13206 | 2502 ft | 170 kts | 40° |
| 2026-05-04 20:53 | 46.26452 | 6.13921 | 3128 ft | 170 kts | 4° |
| 2026-05-04 20:54 | 46.27637 | 6.13980 | 3666 ft | 171 kts | 4° |
| 2026-05-04 20:54 | 46.28823 | 6.14191 | 4216 ft | 172 kts | 7° |
| 2026-05-04 20:54 | 46.30012 | 6.14452 | 4728 ft | 175 kts | 7° |
| 2026-05-04 20:54 | 46.31289 | 6.14730 | 4971 ft | 197 kts | 7° |
| 2026-05-04 20:55 | 46.32719 | 6.15032 | 5191 ft | 219 kts | 7° |
| 2026-05-04 20:55 | 46.34295 | 6.15357 | 5421 ft | 244 kts | 7° |
| 2026-05-04 20:55 | 46.36056 | 6.15716 | 5775 ft | 267 kts | 7° |
| 2026-05-04 20:55 | 46.37956 | 6.16094 | 6366 ft | 281 kts | 7° |
| 2026-05-04 20:56 | 46.39914 | 6.16476 | 7133 ft | 286 kts | 7° |
| 2026-05-04 20:56 | 46.41915 | 6.16863 | 7870 ft | 294 kts | 6° |
| 2026-05-04 20:56 | 46.43956 | 6.17255 | 8701 ft | 297 kts | 7° |
| 2026-05-04 20:56 | 46.46022 | 6.17650 | 9519 ft | 302 kts | 7° |
| 2026-05-04 20:57 | 46.48124 | 6.18054 | 10222 ft | 310 kts | 7° |
| 2026-05-04 20:57 | 46.50345 | 6.18482 | 10471 ft | 334 kts | 7° |
| 2026-05-04 20:57 | 46.52693 | 6.18939 | 10960 ft | 346 kts | 7° |
| 2026-05-04 20:57 | 46.55096 | 6.19404 | 11614 ft | 351 kts | 6° |
| 2026-05-04 20:58 | 46.57539 | 6.19756 | 12355 ft | 354 kts | 358° |
| 2026-05-04 20:58 | 46.59979 | 6.19324 | 13082 ft | 355 kts | 343° |
| 2026-05-04 20:58 | 46.62268 | 6.18002 | 13799 ft | 355 kts | 328° |
| 2026-05-04 20:58 | 46.64262 | 6.15896 | 14392 ft | 355 kts | 314° |
| 2026-05-04 20:59 | 46.65931 | 6.13234 | 15005 ft | 358 kts | 308° |
| 2026-05-04 20:59 | 46.67574 | 6.10493 | 15611 ft | 361 kts | 309° |
| 2026-05-04 20:59 | 46.69239 | 6.07722 | 16248 ft | 364 kts | 308° |
| 2026-05-04 20:59 | 46.70915 | 6.04936 | 16887 ft | 367 kts | 308° |
| 2026-05-04 21:00 | 46.72443 | 6.01961 | 17488 ft | 367 kts | 298° |
| 2026-05-04 21:00 | 46.73558 | 5.98621 | 18088 ft | 367 kts | 287° |
| 2026-05-04 21:00 | 46.74438 | 5.95120 | 18659 ft | 369 kts | 287° |
| 2026-05-04 21:00 | 46.75316 | 5.91636 | 19163 ft | 373 kts | 287° |
| 2026-05-04 21:01 | 46.76216 | 5.88076 | 19691 ft | 376 kts | 287° |
| 2026-05-04 21:01 | 46.77125 | 5.84480 | 20208 ft | 380 kts | 287° |
| 2026-05-04 21:01 | 46.78042 | 5.80845 | 20723 ft | 384 kts | 287° |
| 2026-05-04 21:01 | 46.78966 | 5.77175 | 21236 ft | 387 kts | 286° |
| 2026-05-04 21:02 | 46.79898 | 5.73471 | 21747 ft | 391 kts | 286° |
| 2026-05-04 21:02 | 46.80840 | 5.69729 | 22265 ft | 394 kts | 285° |
| 2026-05-04 21:02 | 46.81788 | 5.65958 | 22780 ft | 397 kts | 285° |
| 2026-05-04 21:02 | 46.82741 | 5.62151 | 23280 ft | 401 kts | 285° |
| 2026-05-04 21:03 | 46.83697 | 5.58307 | 23729 ft | 404 kts | 285° |
| 2026-05-04 21:03 | 46.84657 | 5.54442 | 24174 ft | 406 kts | 284° |
| 2026-05-04 21:03 | 46.85620 | 5.50565 | 24622 ft | 407 kts | 284° |
| 2026-05-04 21:03 | 46.86584 | 5.46673 | 25061 ft | 408 kts | 284° |
| 2026-05-04 21:04 | 46.87549 | 5.42770 | 25476 ft | 409 kts | 284° |
| 2026-05-04 21:04 | 46.88522 | 5.38854 | 25897 ft | 411 kts | 284° |
| 2026-05-04 21:04 | 46.89512 | 5.34932 | 26311 ft | 412 kts | 284° |
| 2026-05-04 21:04 | 46.90518 | 5.30999 | 26735 ft | 413 kts | 285° |
| 2026-05-04 21:05 | 46.91704 | 5.27134 | 27071 ft | 422 kts | 294° |
| 2026-05-04 21:05 | 46.93353 | 5.23530 | 27429 ft | 431 kts | 303° |
| 2026-05-04 21:05 | 46.95438 | 5.20318 | 27794 ft | 440 kts | 312° |
| 2026-05-04 21:05 | 46.97718 | 5.17317 | 28157 ft | 442 kts | 312° |
| 2026-05-04 21:06 | 47.00006 | 5.14298 | 28518 ft | 443 kts | 312° |
| 2026-05-04 21:06 | 47.02299 | 5.11259 | 28856 ft | 445 kts | 312° |
| 2026-05-04 21:06 | 47.04598 | 5.08209 | 29187 ft | 447 kts | 312° |
| 2026-05-04 21:06 | 47.06907 | 5.05143 | 29517 ft | 449 kts | 311° |
| 2026-05-04 21:07 | 47.09223 | 5.02064 | 29859 ft | 450 kts | 312° |
| 2026-05-04 21:07 | 47.11545 | 4.98975 | 30158 ft | 451 kts | 312° |
| 2026-05-04 21:07 | 47.13873 | 4.95872 | 30417 ft | 453 kts | 312° |
| 2026-05-04 21:07 | 47.16205 | 4.92752 | 30688 ft | 454 kts | 313° |
| 2026-05-04 21:08 | 47.18546 | 4.89614 | 30916 ft | 456 kts | 313° |
| 2026-05-04 21:08 | 47.20896 | 4.86461 | 31150 ft | 458 kts | 313° |
| 2026-05-04 21:08 | 47.23251 | 4.83305 | 31425 ft | 458 kts | 313° |
| 2026-05-04 21:08 | 47.25604 | 4.80150 | 31747 ft | 457 kts | 313° |
| 2026-05-04 21:09 | 47.27949 | 4.77006 | 32062 ft | 456 kts | 313° |
| 2026-05-04 21:09 | 47.30261 | 4.73902 | 32401 ft | 455 kts | 313° |
| 2026-05-04 21:09 | 47.32598 | 4.70765 | 32743 ft | 454 kts | 312° |
| 2026-05-04 21:09 | 47.34928 | 4.67630 | 33068 ft | 453 kts | 312° |
| 2026-05-04 21:10 | 47.37247 | 4.64500 | 33393 ft | 452 kts | 312° |
| 2026-05-04 21:10 | 47.39562 | 4.61366 | 33715 ft | 451 kts | 311° |
| 2026-05-04 21:10 | 47.41869 | 4.58237 | 33924 ft | 451 kts | 311° |
| 2026-05-04 21:10 | 47.44160 | 4.55136 | 33958 ft | 443 kts | 311° |
| 2026-05-04 21:11 | 47.48672 | 4.49024 | 33956 ft | 439 kts | 311° |
| 2026-05-04 21:11 | 47.53153 | 4.42917 | 33954 ft | 436 kts | 312° |
| 2026-05-04 21:12 | 47.57609 | 4.36830 | 33959 ft | 436 kts | 312° |
| 2026-05-04 21:12 | 47.62057 | 4.30736 | 33955 ft | 436 kts | 312° |
| 2026-05-04 21:13 | 47.66181 | 4.24264 | 33952 ft | 427 kts | 299° |
| 2026-05-04 21:13 | 47.69499 | 4.16986 | 33972 ft | 425 kts | 297° |
| 2026-05-04 21:14 | 47.72806 | 4.09711 | 33969 ft | 424 kts | 297° |
| 2026-05-04 21:14 | 47.76100 | 4.02450 | 33970 ft | 423 kts | 297° |
| 2026-05-04 21:15 | 47.79376 | 3.95206 | 33964 ft | 422 kts | 297° |
| 2026-05-04 21:15 | 47.82642 | 3.87967 | 33959 ft | 421 kts | 297° |
| 2026-05-04 21:16 | 47.85879 | 3.80775 | 33958 ft | 421 kts | 297° |
| 2026-05-04 21:16 | 47.89151 | 3.73490 | 33952 ft | 420 kts | 297° |
| 2026-05-04 21:17 | 47.92387 | 3.66241 | 33950 ft | 420 kts | 297° |
| 2026-05-04 21:17 | 47.95897 | 3.59295 | 33951 ft | 429 kts | 310° |
| 2026-05-04 21:18 | 48.00840 | 3.54130 | 33958 ft | 443 kts | 330° |
| 2026-05-04 21:18 | 48.06547 | 3.50573 | 33960 ft | 444 kts | 332° |
| 2026-05-04 21:19 | 48.12258 | 3.47047 | 33957 ft | 443 kts | 332° |
| 2026-05-04 21:19 | 48.17954 | 3.43500 | 33954 ft | 443 kts | 332° |
| 2026-05-04 21:20 | 48.23637 | 3.39941 | 33958 ft | 443 kts | 332° |
| 2026-05-04 21:20 | 48.29324 | 3.36373 | 33943 ft | 443 kts | 332° |
| 2026-05-04 21:21 | 48.35018 | 3.32799 | 33945 ft | 444 kts | 332° |
| 2026-05-04 21:21 | 48.40713 | 3.29223 | 33946 ft | 444 kts | 332° |
| 2026-05-04 21:22 | 48.46408 | 3.25640 | 33943 ft | 443 kts | 332° |
| 2026-05-04 21:22 | 48.52102 | 3.22043 | 33944 ft | 443 kts | 332° |
| 2026-05-04 21:23 | 48.57787 | 3.18438 | 33948 ft | 443 kts | 332° |
| 2026-05-04 21:23 | 48.63473 | 3.14811 | 33948 ft | 443 kts | 332° |
| 2026-05-04 21:24 | 48.69152 | 3.11184 | 33951 ft | 443 kts | 332° |
| 2026-05-04 21:24 | 48.74838 | 3.07561 | 33952 ft | 443 kts | 332° |
| 2026-05-04 21:25 | 48.80520 | 3.03922 | 33958 ft | 444 kts | 331° |
| 2026-05-04 21:25 | 48.86100 | 2.99976 | 33940 ft | 439 kts | 324° |
| 2026-05-04 21:26 | 48.91399 | 2.95332 | 33935 ft | 440 kts | 324° |
| 2026-05-04 21:26 | 48.96713 | 2.90682 | 33936 ft | 441 kts | 324° |
| 2026-05-04 21:27 | 49.02031 | 2.86016 | 33943 ft | 441 kts | 324° |
| 2026-05-04 21:27 | 49.07350 | 2.81351 | 33949 ft | 441 kts | 324° |
| 2026-05-04 21:28 | 49.12626 | 2.76709 | 33973 ft | 440 kts | 324° |
| 2026-05-04 21:28 | 49.17892 | 2.72053 | 33972 ft | 439 kts | 324° |
| 2026-05-04 21:29 | 49.22498 | 2.67973 | 33960 ft | 439 kts | 324° |
| 2026-05-04 21:29 | 49.27790 | 2.63278 | 33961 ft | 440 kts | 324° |
| 2026-05-04 21:30 | 49.32619 | 2.58977 | 33955 ft | 440 kts | 324° |
| 2026-05-04 21:30 | 49.37912 | 2.54259 | 33955 ft | 440 kts | 324° |
| 2026-05-04 21:31 | 49.45842 | 2.47160 | 33961 ft | 440 kts | 324° |
| 2026-05-04 21:32 | 49.51122 | 2.42404 | 33976 ft | 440 kts | 324° |
| 2026-05-04 21:32 | 49.56447 | 2.37773 | 33985 ft | 439 kts | 326° |
| 2026-05-04 21:33 | 49.61821 | 2.33298 | 33985 ft | 439 kts | 326° |
| 2026-05-04 21:33 | 49.67183 | 2.28819 | 33982 ft | 438 kts | 326° |
| 2026-05-04 21:34 | 49.72520 | 2.24291 | 33998 ft | 438 kts | 326° |
| 2026-05-04 21:34 | 49.76945 | 2.20503 | 33987 ft | 438 kts | 326° |
| 2026-05-04 21:35 | 49.82260 | 2.15951 | 33984 ft | 438 kts | 326° |
| 2026-05-04 21:35 | 49.87601 | 2.11381 | 33985 ft | 438 kts | 326° |
| 2026-05-04 21:36 | 49.92933 | 2.06806 | 33981 ft | 438 kts | 326° |
| 2026-05-04 21:36 | 49.98257 | 2.02224 | 33998 ft | 437 kts | 327° |
| 2026-05-04 21:37 | 50.03571 | 1.97641 | 34001 ft | 436 kts | 327° |
| 2026-05-04 21:37 | 50.08873 | 1.93052 | 33996 ft | 436 kts | 326° |
| 2026-05-04 21:38 | 50.14166 | 1.88449 | 33994 ft | 435 kts | 326° |
| 2026-05-04 21:38 | 50.19025 | 1.83012 | 34019 ft | 426 kts | 311° |
| 2026-05-04 21:39 | 50.23265 | 1.76533 | 33995 ft | 427 kts | 311° |
| 2026-05-04 21:39 | 50.27493 | 1.70101 | 33990 ft | 428 kts | 311° |
| 2026-05-04 21:40 | 50.31778 | 1.63550 | 33989 ft | 428 kts | 311° |
| 2026-05-04 21:40 | 50.36040 | 1.57014 | 34000 ft | 434 kts | 311° |
| 2026-05-04 21:41 | 50.40391 | 1.50314 | 34001 ft | 441 kts | 311° |
| 2026-05-04 21:41 | 50.42551 | 1.46981 | 33424 ft | 442 kts | 311° |
| 2026-05-04 21:41 | 50.44767 | 1.43567 | 32710 ft | 440 kts | 312° |
| 2026-05-04 21:41 | 50.46912 | 1.40262 | 32093 ft | 437 kts | 312° |
| 2026-05-04 21:42 | 50.49072 | 1.36929 | 31516 ft | 433 kts | 312° |
| 2026-05-04 21:42 | 50.51178 | 1.33580 | 30957 ft | 429 kts | 310° |
| 2026-05-04 21:42 | 50.53216 | 1.30181 | 30412 ft | 425 kts | 309° |
| 2026-05-04 21:42 | 50.55205 | 1.26760 | 29862 ft | 422 kts | 309° |
| 2026-05-04 21:43 | 50.57165 | 1.23353 | 29263 ft | 419 kts | 309° |
| 2026-05-04 21:43 | 50.59132 | 1.19997 | 28686 ft | 416 kts | 310° |
| 2026-05-04 21:43 | 50.61135 | 1.16735 | 28119 ft | 413 kts | 312° |
| 2026-05-04 21:43 | 50.63158 | 1.13551 | 27566 ft | 410 kts | 313° |
| 2026-05-04 21:44 | 50.65185 | 1.10406 | 27016 ft | 408 kts | 313° |
| 2026-05-04 21:44 | 50.67202 | 1.07281 | 26478 ft | 405 kts | 313° |
| 2026-05-04 21:44 | 50.69199 | 1.04164 | 25947 ft | 403 kts | 313° |
| 2026-05-04 21:44 | 50.71174 | 1.01050 | 25460 ft | 400 kts | 313° |
| 2026-05-04 21:45 | 50.73133 | 0.97945 | 24963 ft | 398 kts | 312° |
| 2026-05-04 21:45 | 50.75079 | 0.94847 | 24458 ft | 397 kts | 313° |
| 2026-05-04 21:45 | 50.77010 | 0.91766 | 24022 ft | 393 kts | 313° |
| 2026-05-04 21:45 | 50.78926 | 0.88706 | 23588 ft | 390 kts | 313° |
| 2026-05-04 21:46 | 50.80826 | 0.85669 | 23079 ft | 387 kts | 313° |
| 2026-05-04 21:46 | 50.82717 | 0.82647 | 22529 ft | 385 kts | 313° |
| 2026-05-04 21:46 | 50.84593 | 0.79642 | 22030 ft | 383 kts | 313° |
| 2026-05-04 21:46 | 50.86461 | 0.76649 | 21573 ft | 380 kts | 314° |
| 2026-05-04 21:47 | 50.88298 | 0.73705 | 21354 ft | 370 kts | 313° |
| 2026-05-04 21:47 | 50.90110 | 0.70801 | 20770 ft | 371 kts | 313° |
| 2026-05-04 21:47 | 50.91921 | 0.67884 | 20254 ft | 371 kts | 313° |
| 2026-05-04 21:47 | 50.93725 | 0.64968 | 19786 ft | 369 kts | 313° |
| 2026-05-04 21:48 | 50.95520 | 0.62068 | 19353 ft | 367 kts | 314° |
| 2026-05-04 21:48 | 50.97305 | 0.59185 | 18907 ft | 365 kts | 314° |
| 2026-05-04 21:48 | 50.99084 | 0.56312 | 18463 ft | 364 kts | 314° |
| 2026-05-04 21:48 | 51.00849 | 0.53458 | 18048 ft | 361 kts | 314° |
| 2026-05-04 21:49 | 51.02606 | 0.50614 | 17566 ft | 360 kts | 314° |
| 2026-05-04 21:49 | 51.04350 | 0.47792 | 17154 ft | 356 kts | 314° |
| 2026-05-04 21:49 | 51.06078 | 0.44988 | 16687 ft | 355 kts | 314° |
| 2026-05-04 21:49 | 51.07810 | 0.42196 | 16258 ft | 353 kts | 315° |
| 2026-05-04 21:50 | 51.09558 | 0.39478 | 15879 ft | 350 kts | 316° |
| 2026-05-04 21:50 | 51.11316 | 0.36807 | 15454 ft | 349 kts | 317° |
| 2026-05-04 21:50 | 51.13076 | 0.34158 | 15016 ft | 348 kts | 317° |
| 2026-05-04 21:50 | 51.14832 | 0.31515 | 14623 ft | 346 kts | 317° |
| 2026-05-04 21:51 | 51.16549 | 0.28917 | 14491 ft | 335 kts | 317° |
| 2026-05-04 21:51 | 51.18123 | 0.26261 | 14352 ft | 325 kts | 305° |
| 2026-05-04 21:51 | 51.19190 | 0.23137 | 14142 ft | 319 kts | 296° |
| 2026-05-04 21:51 | 51.20140 | 0.19952 | 13827 ft | 317 kts | 295° |
| 2026-05-04 21:52 | 51.21076 | 0.16784 | 13527 ft | 313 kts | 295° |
| 2026-05-04 21:52 | 51.22000 | 0.13644 | 13148 ft | 313 kts | 295° |
| 2026-05-04 21:52 | 51.22917 | 0.10521 | 12848 ft | 309 kts | 295° |
| 2026-05-04 21:52 | 51.23820 | 0.07428 | 12522 ft | 306 kts | 295° |
| 2026-05-04 21:53 | 51.24718 | 0.04355 | 12137 ft | 306 kts | 295° |
| 2026-05-04 21:53 | 51.25616 | 0.01294 | 11807 ft | 303 kts | 295° |
| 2026-05-04 21:53 | 51.26506 | -0.01743 | 11492 ft | 300 kts | 295° |
| 2026-05-04 21:53 | 51.27384 | -0.04746 | 11145 ft | 298 kts | 295° |
| 2026-05-04 21:54 | 51.28258 | -0.07742 | 10807 ft | 296 kts | 295° |
| 2026-05-04 21:54 | 51.29125 | -0.10714 | 10471 ft | 294 kts | 294° |
| 2026-05-04 21:54 | 51.29980 | -0.13663 | 10154 ft | 291 kts | 294° |
| 2026-05-04 21:54 | 51.30830 | -0.16588 | 9818 ft | 289 kts | 294° |
| 2026-05-04 21:55 | 51.31663 | -0.19451 | 9455 ft | 287 kts | 295° |
| 2026-05-04 21:55 | 51.32500 | -0.22329 | 9070 ft | 285 kts | 295° |
| 2026-05-04 21:55 | 51.33330 | -0.25200 | 8694 ft | 283 kts | 295° |
| 2026-05-04 21:55 | 51.34151 | -0.28042 | 8375 ft | 279 kts | 294° |
| 2026-05-04 21:56 | 51.34955 | -0.30835 | 8054 ft | 275 kts | 294° |
| 2026-05-04 21:56 | 51.35750 | -0.33605 | 7673 ft | 273 kts | 294° |
| 2026-05-04 21:56 | 51.36539 | -0.36352 | 7290 ft | 271 kts | 294° |
| 2026-05-04 21:56 | 51.37325 | -0.39083 | 6914 ft | 269 kts | 294° |
| 2026-05-04 21:57 | 51.38107 | -0.41799 | 6535 ft | 268 kts | 294° |
| 2026-05-04 21:57 | 51.38882 | -0.44499 | 6124 ft | 266 kts | 295° |
| 2026-05-04 21:57 | 51.39619 | -0.47069 | 5710 ft | 266 kts | 294° |
| 2026-05-04 21:57 | 51.40112 | -0.49896 | 5306 ft | 265 kts | 276° |
| 2026-05-04 21:58 | 51.40183 | -0.52827 | 5017 ft | 259 kts | 272° |
| 2026-05-04 21:58 | 51.40197 | -0.55649 | 4891 ft | 247 kts | 271° |
| 2026-05-04 21:58 | 51.40196 | -0.58334 | 4752 ft | 235 kts | 271° |
| 2026-05-04 21:58 | 51.40200 | -0.60904 | 4566 ft | 227 kts | 271° |
| 2026-05-04 21:59 | 51.40198 | -0.63426 | 4246 ft | 226 kts | 271° |
| 2026-05-04 21:59 | 51.40195 | -0.65938 | 4022 ft | 222 kts | 271° |
| 2026-05-04 21:59 | 51.40193 | -0.68045 | 3997 ft | 209 kts | 270° |
| 2026-05-04 21:59 | 51.40181 | -0.70293 | 3996 ft | 197 kts | 270° |
| 2026-05-04 22:00 | 51.40175 | -0.72471 | 4004 ft | 195 kts | 271° |
| 2026-05-04 22:00 | 51.40172 | -0.74635 | 4006 ft | 195 kts | 271° |
| 2026-05-04 22:00 | 51.40161 | -0.76809 | 4008 ft | 195 kts | 271° |
| 2026-05-04 22:00 | 51.40149 | -0.78982 | 4008 ft | 196 kts | 271° |
| 2026-05-04 22:01 | 51.40267 | -0.81131 | 3997 ft | 192 kts | 295° |
| 2026-05-04 22:01 | 51.41087 | -0.82726 | 4009 ft | 187 kts | 334° |
| 2026-05-04 22:01 | 51.42330 | -0.83246 | 4020 ft | 186 kts | 357° |
| 2026-05-04 22:01 | 51.43625 | -0.83332 | 4009 ft | 186 kts | 0° |
| 2026-05-04 22:02 | 51.44874 | -0.82932 | 3997 ft | 184 kts | 33° |
| 2026-05-04 22:02 | 51.45746 | -0.81451 | 4024 ft | 186 kts | 56° |
| 2026-05-04 22:02 | 51.46403 | -0.79673 | 4011 ft | 185 kts | 61° |
| 2026-05-04 22:02 | 51.47021 | -0.77863 | 4002 ft | 186 kts | 61° |
| 2026-05-04 22:03 | 51.47558 | -0.75964 | 3873 ft | 190 kts | 77° |
| 2026-05-04 22:03 | 51.47636 | -0.73802 | 3374 ft | 202 kts | 89° |
| 2026-05-04 22:03 | 51.47637 | -0.71513 | 2990 ft | 205 kts | 89° |
| 2026-05-04 22:03 | 51.47646 | -0.69240 | 2714 ft | 202 kts | 88° |
| 2026-05-04 22:04 | 51.47657 | -0.67056 | 2424 ft | 195 kts | 88° |
| 2026-05-04 22:04 | 51.47669 | -0.64918 | 2148 ft | 188 kts | 88° |
| 2026-05-04 22:04 | 51.47680 | -0.62875 | 1900 ft | 178 kts | 88° |
| 2026-05-04 22:04 | 51.47690 | -0.60901 | 1663 ft | 176 kts | 88° |
| 2026-05-04 22:05 | 51.47700 | -0.58952 | 1422 ft | 174 kts | 88° |
| 2026-05-04 22:05 | 51.47709 | -0.57050 | 1203 ft | 161 kts | 88° |
| 2026-05-04 22:05 | 51.47717 | -0.55356 | 948 ft | 145 kts | 88° |
| 2026-05-04 22:05 | 51.47724 | -0.53789 | 735 ft | 137 kts | 86° |
| 2026-05-04 22:06 | 51.47732 | -0.52270 | 531 ft | 137 kts | 87° |
| 2026-05-04 22:06 | 51.47740 | -0.50754 | 393 ft | 136 kts | 88° |
| 2026-05-04 22:06 | 51.47752 | -0.49247 | 177 ft | 134 kts | 86° |
| 2026-05-04 22:06 | 51.47753 | -0.47768 | 88 ft | 129 kts | 88° |
| 2026-05-04 22:07 | 51.47760 | -0.46553 | 89 ft | 84 kts | 91° |
| 2026-05-04 22:07 | 51.47761 | -0.45888 | 84 ft | 35 kts | 90° |
| 2026-05-04 22:07 | 51.47761 | -0.45593 | 85 ft | 19 kts | 90° |
| 2026-05-04 22:07 | 51.47671 | -0.45472 | 87 ft | 20 kts | 174° |